Time;durP1;ratioP1;P1;durP2;ratioP2;P2;SDS_P1;SDS_P2;PMS_P1;PMS_P2;Temp;Humidity;BMP_temperature;BMP_pressure;BME280_temperature;BME280_humidity;BME280_pressure;Samples;Min_cycle;Max_cycle;Signal;HPM_P1;HPM_P2
2024/01/18 00:01:54;;;;;;;;;;;;;;;-0.36;95.36;97804.41;4956335;28;19927;-83
2024/01/18 00:04:20;;;;;;;;;;;;;;;-0.31;95.27;97795.78;4950609;28;19991;-87
2024/01/18 00:06:47;;;;;;;;;;;;;;;-0.36;95.14;97783.81;4949948;28;19962;-83
2024/01/18 00:09:14;;;;;;;;;;;;;;;-0.33;95.24;97800.09;4951815;28;19937;-87
2024/01/18 00:11:41;;;;;;;;;;;;;;;-0.31;95.04;97806.09;4932848;28;19926;-84
2024/01/18 00:14:08;;;;;;;;;;;;;;;-0.22;94.80;97811.09;4955628;28;19927;-83
2024/01/18 00:16:34;;;;;;;;;;;;;;;-0.26;94.69;97806.84;4951577;28;20358;-83
2024/01/18 00:19:01;;;;;;;;;;;;;;;-0.25;94.77;97800.84;4949144;28;19926;-84
2024/01/18 00:21:28;;;;;;;;;;;;;;;-0.24;94.67;97815.44;4943565;28;19930;-87
2024/01/18 00:23:55;;;;;;;;;;;;;;;-0.25;94.63;97806.00;4945768;28;19934;-85
2024/01/18 00:26:22;;;;;;;;;;;;;;;-0.25;94.59;97819.72;4948267;28;19930;-84
2024/01/18 00:28:48;;;;;;;;;;;;;;;-0.24;94.61;97812.88;4951026;28;19945;-84
2024/01/18 00:31:15;;;;;;;;;;;;;;;-0.25;94.52;97821.47;4933193;29;19926;-87
2024/01/18 00:33:42;;;;;;;;;;;;;;;-0.24;94.55;97828.34;4934469;29;20017;-83
2024/01/18 00:36:09;;;;;;;;;;;;;;;-0.19;94.44;97823.94;4936549;28;20001;-85
2024/01/18 00:38:36;;;;;;;;;;;;;;;-0.21;94.29;97821.41;4930669;28;19926;-83
2024/01/18 00:41:03;;;;;;;;;;;;;;;-0.23;94.19;97835.19;4954843;28;20042;-83
2024/01/18 00:43:29;;;;;;;;;;;;;;;-0.20;94.03;97842.88;4944413;29;20004;-84
2024/01/18 00:45:56;;;;;;;;;;;;;;;-0.17;93.85;97845.41;4955265;28;20084;-83
2024/01/18 00:48:23;;;;;;;;;;;;;;;-0.18;93.77;97843.72;4928056;29;19927;-83
2024/01/18 00:50:49;;;;;;;;;;;;;;;-0.16;93.66;97856.56;4948308;28;20362;-83
2024/01/18 00:53:16;;;;;;;;;;;;;;;-0.21;93.63;97865.22;4926485;29;19982;-84
2024/01/18 00:55:43;;;;;;;;;;;;;;;-0.20;93.59;97860.94;4947728;28;19927;-83
2024/01/18 00:58:10;;;;;;;;;;;;;;;-0.21;93.61;97860.06;4949765;29;19948;-86
2024/01/18 01:00:36;;;;;;;;;;;;;;;-0.24;93.63;97864.41;4946121;28;19944;-83
2024/01/18 01:03:03;;;;;;;;;;;;;;;-0.23;93.79;97869.56;4935581;29;19926;-83
2024/01/18 01:05:30;;;;;;;;;;;;;;;-0.30;93.66;97855.03;4945839;28;19934;-83
2024/01/18 01:07:57;;;;;;;;;;;;;;;-0.33;93.73;97865.38;4952412;28;19949;-83
2024/01/18 01:10:23;;;;;;;;;;;;;;;-0.32;93.98;97866.22;4954091;28;19958;-84
2024/01/18 01:12:50;;;;;;;;;;;;;;;-0.34;94.10;97862.84;4957378;28;20002;-84
2024/01/18 01:15:17;;;;;;;;;;;;;;;-0.36;93.92;97868.84;4951417;28;19961;-83
2024/01/18 01:17:44;;;;;;;;;;;;;;;-0.34;94.10;97878.28;4950845;28;19927;-87
2024/01/18 01:20:10;;;;;;;;;;;;;;;-0.40;94.16;97882.63;4950766;28;19930;-83
2024/01/18 01:22:37;;;;;;;;;;;;;;;-0.42;94.19;97884.41;4942177;28;19931;-83
2024/01/18 01:25:04;;;;;;;;;;;;;;;-0.44;94.18;97887.84;4939639;28;19927;-84
2024/01/18 01:27:31;;;;;;;;;;;;;;;-0.45;94.18;97881.84;4941121;28;20002;-84
2024/01/18 01:29:58;;;;;;;;;;;;;;;-0.48;94.25;97887.00;4943164;28;19933;-85
2024/01/18 01:32:25;;;;;;;;;;;;;;;-0.52;94.47;97890.53;4951397;28;19927;-83
2024/01/18 01:34:51;;;;;;;;;;;;;;;-0.54;94.46;97887.97;4950060;28;19954;-83
2024/01/18 01:37:18;;;;;;;;;;;;;;;-0.58;94.53;97888.00;4952011;28;20020;-84
2024/01/18 01:39:46;;;;;;;;;;;;;;;-0.54;94.51;97894.81;4960063;28;19926;-83
2024/01/18 01:42:12;;;;;;;;;;;;;;;-0.55;94.59;97900.84;4945232;29;19926;-84
2024/01/18 01:44:40;;;;;;;;;;;;;;;-0.56;94.76;97909.47;4947442;28;19926;-84
2024/01/18 01:47:06;;;;;;;;;;;;;;;-0.62;94.65;97912.06;4952925;28;19933;-84
2024/01/18 01:49:33;;;;;;;;;;;;;;;-0.62;94.61;97912.06;4953513;28;19933;-92
2024/01/18 01:52:00;;;;;;;;;;;;;;;-0.62;95.02;97925.84;4936861;29;19930;-83
2024/01/18 01:54:29;;;;;;;;;;;;;;;-0.61;94.86;97929.25;4933669;29;19926;-84
2024/01/18 01:56:56;;;;;;;;;;;;;;;-0.64;94.76;97929.28;4934820;28;19927;-88
2024/01/18 01:59:23;;;;;;;;;;;;;;;-0.64;94.97;97934.44;4938369;29;19949;-84
2024/01/18 02:01:50;;;;;;;;;;;;;;;-0.66;95.04;97933.63;4933521;28;19926;-82
2024/01/18 02:04:17;;;;;;;;;;;;;;;-0.67;94.88;97926.75;4921123;29;19937;-84
2024/01/18 02:06:43;;;;;;;;;;;;;;;-0.67;94.80;97929.31;4930459;28;19969;-83
2024/01/18 02:09:10;;;;;;;;;;;;;;;-0.68;94.97;97933.63;4928982;29;19938;-83
2024/01/18 02:11:37;;;;;;;;;;;;;;;-0.69;95.05;97928.50;4927070;28;19975;-87
2024/01/18 02:14:04;;;;;;;;;;;;;;;-0.69;95.01;97918.19;4946055;28;19926;-83
2024/01/18 02:16:32;;;;;;;;;;;;;;;-0.73;94.91;97917.34;4949501;28;20024;-84
2024/01/18 02:18:59;;;;;;;;;;;;;;;-0.77;94.90;97913.09;4932710;28;20014;-84
2024/01/18 02:21:26;;;;;;;;;;;;;;;-0.79;94.98;97917.44;4932579;29;20017;-83
2024/01/18 02:23:54;;;;;;;;;;;;;;;-0.79;95.04;97915.69;4929451;28;19933;-84
2024/01/18 02:26:21;;;;;;;;;;;;;;;-0.75;94.94;97932.81;4917223;29;19986;-83
2024/01/18 02:28:54;;;;;;;;;;;;;;;-0.78;94.95;97935.44;4940812;28;19927;-84
2024/01/18 02:31:21;;;;;;;;;;;;;;;-0.78;94.81;97944.88;4931593;29;19930;-84
2024/01/18 02:33:48;;;;;;;;;;;;;;;-0.77;94.94;97941.44;4914515;29;19938;-83
2024/01/18 02:36:15;;;;;;;;;;;;;;;-0.80;94.98;97932.00;4946835;28;19941;-84
2024/01/18 02:38:42;;;;;;;;;;;;;;;-0.80;94.84;97941.47;4908780;29;19950;-86
2024/01/18 02:41:08;;;;;;;;;;;;;;;-0.78;94.89;97940.59;4946052;28;20021;-83
2024/01/18 02:43:35;;;;;;;;;;;;;;;-0.82;94.94;97933.75;4941624;28;19933;-84
2024/01/18 02:46:03;;;;;;;;;;;;;;;-0.80;94.89;97952.59;4930924;29;19926;-83
2024/01/18 02:48:29;;;;;;;;;;;;;;;-0.78;94.98;97943.16;4954521;28;19926;-83
2024/01/18 02:50:56;;;;;;;;;;;;;;;-0.80;94.76;97938.88;4932065;28;19931;-82
2024/01/18 02:53:23;;;;;;;;;;;;;;;-0.79;94.82;97944.03;4946791;28;19934;-84
2024/01/18 02:55:50;;;;;;;;;;;;;;;-0.82;94.79;97922.59;4948729;28;19926;-84
2024/01/18 02:58:16;;;;;;;;;;;;;;;-0.83;94.88;97913.16;4932127;29;20017;-83
2024/01/18 03:00:43;;;;;;;;;;;;;;;-0.84;94.71;97912.31;4948527;28;19998;-83
2024/01/18 03:03:10;;;;;;;;;;;;;;;-0.85;94.82;97908.03;4944291;28;19930;-83
2024/01/18 03:05:37;;;;;;;;;;;;;;;-0.84;94.69;97914.03;4947781;28;19926;-82
2024/01/18 03:08:04;;;;;;;;;;;;;;;-0.86;94.62;97908.06;4930303;29;19930;-90
2024/01/18 03:10:31;;;;;;;;;;;;;;;-0.89;94.67;97896.06;4949602;28;19926;-81
2024/01/18 03:12:57;;;;;;;;;;;;;;;-0.88;94.69;97885.72;4948481;28;19930;-82
2024/01/18 03:15:24;;;;;;;;;;;;;;;-0.90;94.73;97894.34;4933075;29;19973;-82
2024/01/18 03:17:50;;;;;;;;;;;;;;;-0.90;94.54;97899.50;4932923;28;20038;-81
2024/01/18 03:20:17;;;;;;;;;;;;;;;-0.91;94.64;97900.38;4933521;29;19946;-84
2024/01/18 03:22:44;;;;;;;;;;;;;;;-0.90;94.67;97895.22;4951606;28;19927;-82
2024/01/18 03:25:10;;;;;;;;;;;;;;;-0.90;94.49;97920.09;4948943;28;19927;-84
2024/01/18 03:27:37;;;;;;;;;;;;;;;-0.92;94.44;97916.69;4952462;28;19927;-81
2024/01/18 03:30:05;;;;;;;;;;;;;;;-0.91;94.48;97910.69;4955699;28;19977;-82
2024/01/18 03:32:31;;;;;;;;;;;;;;;-0.94;94.37;97915.81;4957296;28;19931;-83
2024/01/18 03:34:58;;;;;;;;;;;;;;;-0.92;94.26;97921.84;4956177;28;19982;-83
2024/01/18 03:37:26;;;;;;;;;;;;;;;-0.95;94.22;97933.00;4954641;28;19997;-82
2024/01/18 03:39:52;;;;;;;;;;;;;;;-0.94;94.28;97939.00;4951866;28;19933;-82
2024/01/18 03:42:19;;;;;;;;;;;;;;;-0.94;94.24;97933.84;4950971;28;19934;-82
2024/01/18 03:44:46;;;;;;;;;;;;;;;-0.95;94.19;97932.16;4950805;28;19942;-83
2024/01/18 03:47:12;;;;;;;;;;;;;;;-0.95;94.45;97924.44;4948907;28;19930;-82
2024/01/18 03:49:41;;;;;;;;;;;;;;;-0.94;94.19;97920.97;4951675;28;19930;-83
2024/01/18 03:52:08;;;;;;;;;;;;;;;-0.95;94.30;97916.72;4933525;29;19930;-84
2024/01/18 03:54:34;;;;;;;;;;;;;;;-0.94;94.21;97918.41;4951161;28;19926;-82
2024/01/18 03:57:01;;;;;;;;;;;;;;;-0.96;94.41;97909.84;4951467;28;19926;-81
2024/01/18 03:59:29;;;;;;;;;;;;;;;-0.99;94.38;97903.00;4950945;28;19926;-81
2024/01/18 04:01:56;;;;;;;;;;;;;;;-1.02;94.62;97903.03;4939552;28;19927;-81
2024/01/18 04:04:23;;;;;;;;;;;;;;;-1.02;94.68;97904.75;4942719;28;19931;-82
2024/01/18 04:06:49;;;;;;;;;;;;;;;-1.03;94.38;97923.66;4951735;28;19942;-81
2024/01/18 04:09:16;;;;;;;;;;;;;;;-1.02;94.57;97940.81;4951975;28;19926;-83
2024/01/18 04:11:43;;;;;;;;;;;;;;;-1.03;94.52;97957.13;4950226;28;19931;-82
2024/01/18 04:14:09;;;;;;;;;;;;;;;-1.06;94.50;97950.25;4934420;29;20032;-82
2024/01/18 04:16:37;;;;;;;;;;;;;;;-1.08;94.35;97952.84;4951748;28;20357;-84
2024/01/18 04:19:04;;;;;;;;;;;;;;;-1.05;94.41;97950.25;4948620;28;20025;-84
2024/01/18 04:21:35;;;;;;;;;;;;;;;-1.06;94.49;97946.00;4950111;28;19931;-83
2024/01/18 04:24:02;;;;;;;;;;;;;;;-1.03;94.58;97954.53;4930214;29;19926;-81
2024/01/18 04:26:31;;;;;;;;;;;;;;;-1.06;94.87;97951.13;4934542;29;19926;-82
2024/01/18 04:28:57;;;;;;;;;;;;;;;-1.05;94.83;97957.97;4934434;28;19927;-82
2024/01/18 04:31:24;;;;;;;;;;;;;;;-1.05;94.92;97957.13;4951730;28;19930;-83
2024/01/18 04:33:51;;;;;;;;;;;;;;;-1.02;94.93;97961.41;4951558;28;19927;-82
2024/01/18 04:36:17;;;;;;;;;;;;;;;-1.01;94.93;97960.50;4947990;28;19927;-82
2024/01/18 04:38:44;;;;;;;;;;;;;;;-1.03;94.82;97949.38;4934424;28;19958;-83
2024/01/18 04:41:11;;;;;;;;;;;;;;;-1.03;95.05;97964.84;4934569;29;19933;-83
2024/01/18 04:43:38;;;;;;;;;;;;;;;-0.99;94.88;97976.81;4952086;28;19927;-82
2024/01/18 04:46:04;;;;;;;;;;;;;;;-1.00;94.88;97980.25;4957306;28;19927;-84
2024/01/18 04:48:31;;;;;;;;;;;;;;;-1.01;94.83;97988.84;4932187;29;19926;-82
2024/01/18 04:50:58;;;;;;;;;;;;;;;-0.99;94.87;98008.56;4943425;28;19930;-82
2024/01/18 04:53:25;;;;;;;;;;;;;;;-0.99;94.61;98018.00;4950837;28;19994;-86
2024/01/18 04:55:53;;;;;;;;;;;;;;;-0.96;94.71;98023.13;4951977;28;19927;-82
2024/01/18 04:58:20;;;;;;;;;;;;;;;-0.98;94.40;98027.47;4935159;29;19932;-82
2024/01/18 05:00:47;;;;;;;;;;;;;;;-1.03;94.34;98021.47;4952329;28;19937;-83
2024/01/18 05:03:13;;;;;;;;;;;;;;;-1.05;94.35;98030.06;4951486;28;19937;-82
2024/01/18 05:05:41;;;;;;;;;;;;;;;-1.08;94.21;98048.09;4954369;28;19926;-81
2024/01/18 05:08:08;;;;;;;;;;;;;;;-1.10;94.22;98033.53;4955214;28;20365;-83
2024/01/18 05:10:35;;;;;;;;;;;;;;;-1.13;94.11;98021.56;4954745;28;19931;-85
2024/01/18 05:13:01;;;;;;;;;;;;;;;-1.14;93.91;98013.84;4946615;28;19931;-85
2024/01/18 05:15:28;;;;;;;;;;;;;;;-1.21;94.09;98005.28;4936535;29;19926;-81
2024/01/18 05:17:55;;;;;;;;;;;;;;;-1.22;94.22;98001.00;4955375;28;20037;-82
2024/01/18 05:20:24;;;;;;;;;;;;;;;-1.27;94.29;97989.91;4952751;28;19987;-81
2024/01/18 05:22:50;;;;;;;;;;;;;;;-1.29;94.58;97994.19;4946701;29;19927;-82
2024/01/18 05:25:17;;;;;;;;;;;;;;;-1.30;94.63;97987.34;4927047;29;19927;-82
2024/01/18 05:27:44;;;;;;;;;;;;;;;-1.33;94.81;97983.06;4948794;28;19938;-83
2024/01/18 05:30:11;;;;;;;;;;;;;;;-1.35;94.53;97981.38;4934745;29;19927;-83
2024/01/18 05:32:38;;;;;;;;;;;;;;;-1.37;94.54;97976.22;4940684;28;19978;-83
2024/01/18 05:35:05;;;;;;;;;;;;;;;-1.36;94.64;97970.22;4943337;29;20000;-83
2024/01/18 05:37:31;;;;;;;;;;;;;;;-1.37;94.56;97986.53;4935365;28;20158;-83
2024/01/18 05:39:58;;;;;;;;;;;;;;;-1.38;94.40;97986.53;4912928;28;19978;-83
2024/01/18 05:42:27;;;;;;;;;;;;;;;-1.40;94.28;97984.81;4930581;29;19934;-83
2024/01/18 05:44:54;;;;;;;;;;;;;;;-1.39;94.26;97975.41;4933375;28;19937;-83
2024/01/18 05:47:20;;;;;;;;;;;;;;;-1.41;94.30;97975.38;4951169;28;19933;-83
2024/01/18 05:49:48;;;;;;;;;;;;;;;-1.42;94.17;97962.53;4948555;29;19927;-83
2024/01/18 05:52:15;;;;;;;;;;;;;;;-1.40;93.98;97976.25;4950906;29;19926;-84
2024/01/18 05:54:42;;;;;;;;;;;;;;;-1.42;93.78;97988.25;4917417;29;19926;-83
2024/01/18 05:57:09;;;;;;;;;;;;;;;-1.41;93.83;97995.97;4952022;28;19954;-83
2024/01/18 05:59:36;;;;;;;;;;;;;;;-1.43;93.91;97992.56;4956120;28;20338;-85
2024/01/18 06:02:03;;;;;;;;;;;;;;;-1.40;93.89;97992.53;4945526;28;19926;-82
2024/01/18 06:04:30;;;;;;;;;;;;;;;-1.43;93.81;97997.72;4926260;28;19927;-90
2024/01/18 06:06:57;;;;;;;;;;;;;;;-1.45;93.70;97973.72;4945505;28;19926;-82
2024/01/18 06:09:24;;;;;;;;;;;;;;;-1.45;93.71;97978.00;4946444;28;19934;-82
2024/01/18 06:11:51;;;;;;;;;;;;;;;-1.47;93.36;98003.72;4948409;28;19966;-83
2024/01/18 06:14:18;;;;;;;;;;;;;;;-1.45;93.25;98009.75;4954275;28;20018;-83
2024/01/18 06:16:45;;;;;;;;;;;;;;;-1.41;93.93;98016.53;4946415;28;19945;-86
2024/01/18 06:19:12;;;;;;;;;;;;;;;-1.45;93.33;98006.28;4928162;29;19926;-75
2024/01/18 06:21:41;;;;;;;;;;;;;;;-1.44;93.26;98011.44;4919046;28;19926;-72
2024/01/18 06:24:08;;;;;;;;;;;;;;;-1.41;93.62;98021.69;4942368;28;19934;-73
2024/01/18 06:26:34;;;;;;;;;;;;;;;-1.43;93.63;98013.16;4947108;28;19934;-72
2024/01/18 06:29:04;;;;;;;;;;;;;;;-1.44;93.67;98023.44;4928525;28;19937;-73
2024/01/18 06:31:31;;;;;;;;;;;;;;;-1.46;93.51;98033.75;4948607;28;19934;-73
2024/01/18 06:33:57;;;;;;;;;;;;;;;-1.48;93.60;98030.31;4951436;28;19926;-74
2024/01/18 06:36:24;;;;;;;;;;;;;;;-1.52;93.31;98018.34;4945694;28;19926;-81
2024/01/18 06:38:51;;;;;;;;;;;;;;;-1.53;93.27;98020.94;4925334;28;19951;-80
2024/01/18 06:41:19;;;;;;;;;;;;;;;-1.55;92.83;98018.38;4953645;28;19931;-80
2024/01/18 06:43:46;;;;;;;;;;;;;;;-1.57;92.95;98027.78;4950264;28;19926;-82
2024/01/18 06:46:15;;;;;;;;;;;;;;;-1.57;92.91;98022.66;4949131;29;19927;-80
2024/01/18 06:48:42;;;;;;;;;;;;;;;-1.61;93.21;98023.53;4945343;28;19930;-80
2024/01/18 06:51:12;;;;;;;;;;;;;;;-1.64;93.16;98026.97;4955656;28;19934;-81
2024/01/18 06:53:39;;;;;;;;;;;;;;;-1.66;93.35;98027.84;4941378;28;20021;-79
2024/01/18 06:56:10;;;;;;;;;;;;;;;-1.69;93.20;98043.31;4949392;28;19933;-81
2024/01/18 06:58:36;;;;;;;;;;;;;;;-1.70;93.33;98039.00;4929933;28;19930;-80
2024/01/18 07:01:04;;;;;;;;;;;;;;;-1.71;93.24;98050.16;4961358;28;19930;-80
2024/01/18 07:03:30;;;;;;;;;;;;;;;-1.72;93.19;98045.84;4941734;29;19926;-79
2024/01/18 07:05:57;;;;;;;;;;;;;;;-1.73;93.04;98054.47;4952857;29;19926;-80
2024/01/18 07:08:24;;;;;;;;;;;;;;;-1.72;93.33;98057.03;4949581;28;19927;-80
2024/01/18 07:10:50;;;;;;;;;;;;;;;-1.71;93.29;98070.72;4948605;29;19926;-80
2024/01/18 07:13:17;;;;;;;;;;;;;;;-1.71;93.45;98084.44;4947141;28;19988;-80
2024/01/18 07:15:43;;;;;;;;;;;;;;;-1.70;93.35;98080.16;4943451;28;19926;-80
2024/01/18 07:18:10;;;;;;;;;;;;;;;-1.66;93.46;98076.72;4951733;29;19931;-81
2024/01/18 07:20:37;;;;;;;;;;;;;;;-1.69;93.17;98082.72;4934455;29;20013;-80
2024/01/18 07:23:03;;;;;;;;;;;;;;;-1.69;93.36;98087.03;4952770;28;19933;-80
2024/01/18 07:25:30;;;;;;;;;;;;;;;-1.68;93.28;98083.56;4951648;28;19931;-80
2024/01/18 07:27:57;;;;;;;;;;;;;;;-1.71;93.27;98093.88;4951384;28;19956;-80
2024/01/18 07:30:23;;;;;;;;;;;;;;;-1.76;93.00;98104.19;4952110;28;19926;-80
2024/01/18 07:32:50;;;;;;;;;;;;;;;-1.75;92.90;98109.31;4952636;28;19926;-80
2024/01/18 07:35:17;;;;;;;;;;;;;;;-1.75;93.11;98111.88;4952684;28;20031;-81
2024/01/18 07:37:43;;;;;;;;;;;;;;;-1.81;93.10;98104.19;4952051;28;19989;-80
2024/01/18 07:40:10;;;;;;;;;;;;;;;-1.89;92.77;98100.78;4951467;29;19930;-80
2024/01/18 07:42:37;;;;;;;;;;;;;;;-2.00;92.54;98107.66;4934870;29;19950;-80
2024/01/18 07:45:08;;;;;;;;;;;;;;;-2.02;92.29;98120.50;4951764;28;19926;-78
2024/01/18 07:47:35;;;;;;;;;;;;;;;-2.01;92.33;98116.25;4932879;29;19973;-78
2024/01/18 07:50:02;;;;;;;;;;;;;;;-2.08;92.42;98119.69;4949599;28;20418;-79
2024/01/18 07:52:48;;;;;;;;;;;;;;;-2.04;92.39;98122.25;4952213;28;20021;-79
2024/01/18 07:55:16;;;;;;;;;;;;;;;-2.05;92.56;98119.69;4951103;29;19930;-79
2024/01/18 07:57:46;;;;;;;;;;;;;;;-2.05;92.66;98117.09;4936158;28;19926;-80
2024/01/18 08:00:13;;;;;;;;;;;;;;;-2.15;92.79;98116.25;4949445;28;19958;-81
2024/01/18 08:02:40;;;;;;;;;;;;;;;-2.17;92.79;98123.09;4951424;29;19926;-81
2024/01/18 08:05:06;;;;;;;;;;;;;;;-2.28;92.60;98123.13;4918217;28;20298;-81
2024/01/18 08:07:33;;;;;;;;;;;;;;;-2.30;92.50;98115.41;4951877;28;19926;-79
2024/01/18 08:10:00;;;;;;;;;;;;;;;-2.33;92.36;98120.56;4919682;29;19953;-81
2024/01/18 08:12:27;;;;;;;;;;;;;;;-2.32;92.55;98134.25;4949635;28;20445;-80
2024/01/18 08:14:53;;;;;;;;;;;;;;;-2.39;92.43;98130.84;4935953;28;19926;-81
2024/01/18 08:17:20;;;;;;;;;;;;;;;-2.38;92.53;98142.81;4944015;28;19944;-80
2024/01/18 08:19:47;;;;;;;;;;;;;;;-2.35;92.41;98136.81;4948826;28;20025;-81
2024/01/18 08:22:14;;;;;;;;;;;;;;;-2.32;92.39;98147.97;4924914;28;19931;-81
2024/01/18 08:24:41;;;;;;;;;;;;;;;-2.40;92.48;98147.09;4937203;28;19986;-82
2024/01/18 08:27:08;;;;;;;;;;;;;;;-2.41;92.36;98168.50;4958005;28;19954;-81
2024/01/18 08:29:35;;;;;;;;;;;;;;;-2.41;92.52;98171.06;4916885;29;20013;-82
2024/01/18 08:32:03;;;;;;;;;;;;;;;-2.43;92.38;98179.63;4950114;28;19926;-80
2024/01/18 08:34:29;;;;;;;;;;;;;;;-2.38;92.53;98175.34;4932273;29;19942;-81
2024/01/18 08:36:56;;;;;;;;;;;;;;;-2.44;92.50;98173.63;4948732;28;19934;-82
2024/01/18 08:39:23;;;;;;;;;;;;;;;-2.40;92.62;98177.06;4951868;28;19930;-82
2024/01/18 08:41:49;;;;;;;;;;;;;;;-2.38;92.80;98180.50;4922368;28;19926;-82
2024/01/18 08:44:16;;;;;;;;;;;;;;;-2.37;92.92;98189.94;4961621;28;19927;-81
2024/01/18 08:46:43;;;;;;;;;;;;;;;-2.34;92.76;98210.47;4940185;28;20074;-82
2024/01/18 08:49:09;;;;;;;;;;;;;;;-2.32;92.81;98206.19;4921032;29;20105;-81
2024/01/18 08:51:36;;;;;;;;;;;;;;;-2.35;92.77;98213.88;4953157;28;19953;-82
2024/01/18 08:54:04;;;;;;;;;;;;;;;-2.37;92.72;98215.63;4947553;28;19978;-82
2024/01/18 08:56:32;;;;;;;;;;;;;;;-2.43;92.81;98215.59;4952535;28;19930;-81
2024/01/18 08:58:59;;;;;;;;;;;;;;;-2.38;92.79;98231.88;4937864;28;19945;-81
2024/01/18 09:01:27;;;;;;;;;;;;;;;-2.40;92.87;98231.00;4952171;28;19938;-81
2024/01/18 09:03:53;;;;;;;;;;;;;;;-2.38;92.91;98235.28;4948187;28;20017;-82
2024/01/18 09:06:20;;;;;;;;;;;;;;;-2.42;92.73;98237.84;4952461;28;19927;-82
2024/01/18 09:08:47;;;;;;;;;;;;;;;-2.42;92.75;98255.84;4950621;28;19927;-81
2024/01/18 09:11:14;;;;;;;;;;;;;;;-2.38;92.83;98255.00;4952714;28;19926;-81
2024/01/18 09:13:41;;;;;;;;;;;;;;;-2.38;92.80;98262.72;4951792;28;19926;-82
2024/01/18 09:16:08;;;;;;;;;;;;;;;-2.36;92.86;98271.25;4948023;28;19934;-82
2024/01/18 09:18:34;;;;;;;;;;;;;;;-2.40;93.15;98287.50;4946299;28;19927;-82
2024/01/18 09:21:01;;;;;;;;;;;;;;;-2.43;93.16;98287.50;4946547;28;19949;-82
2024/01/18 09:23:28;;;;;;;;;;;;;;;-2.41;93.13;98296.94;4944343;28;19926;-82
2024/01/18 09:25:55;;;;;;;;;;;;;;;-2.39;93.10;98302.09;4951174;28;19943;-82
2024/01/18 09:28:22;;;;;;;;;;;;;;;-2.46;92.92;98298.66;4947225;28;19931;-80
2024/01/18 09:30:48;;;;;;;;;;;;;;;-2.47;92.98;98302.91;4945632;28;19945;-81
2024/01/18 09:33:15;;;;;;;;;;;;;;;-2.41;93.11;98307.22;4944098;28;19926;-83
2024/01/18 09:35:42;;;;;;;;;;;;;;;-2.38;93.14;98311.50;4942320;28;19997;-83
2024/01/18 09:38:10;;;;;;;;;;;;;;;-2.37;93.17;98318.38;4946775;28;20049;-81
2024/01/18 09:40:39;;;;;;;;;;;;;;;-2.38;93.10;98321.78;4944978;28;20370;-83
2024/01/18 09:43:07;;;;;;;;;;;;;;;-2.39;93.16;98327.78;4929246;28;20101;-82
2024/01/18 09:45:35;;;;;;;;;;;;;;;-2.33;93.19;98332.94;4946396;28;19937;-82
2024/01/18 09:48:03;;;;;;;;;;;;;;;-2.34;93.08;98339.78;4929995;28;19934;-83
2024/01/18 09:50:31;;;;;;;;;;;;;;;-2.29;93.16;98342.38;4915929;29;19933;-83
2024/01/18 09:52:57;;;;;;;;;;;;;;;-2.25;93.11;98356.94;4936862;29;19950;-83
2024/01/18 09:55:24;;;;;;;;;;;;;;;-2.24;93.13;98355.25;4931157;29;20382;-83
2024/01/18 09:57:51;;;;;;;;;;;;;;;-2.27;93.27;98368.94;4929995;28;19930;-84
2024/01/18 10:00:19;;;;;;;;;;;;;;;-2.24;93.05;98376.66;4932926;29;19938;-84
2024/01/18 10:02:46;;;;;;;;;;;;;;;-2.20;93.16;98375.81;4931186;29;19926;-84
2024/01/18 10:05:12;;;;;;;;;;;;;;;-2.17;93.07;98388.69;4947599;29;19926;-84
2024/01/18 10:07:39;;;;;;;;;;;;;;;-2.18;92.98;98389.50;4945848;28;19977;-84
2024/01/18 10:10:08;;;;;;;;;;;;;;;-2.16;93.05;98395.53;4953746;28;19973;-84
2024/01/18 10:12:34;;;;;;;;;;;;;;;-2.07;92.98;98391.25;4947036;28;19962;-85
2024/01/18 10:15:01;;;;;;;;;;;;;;;-2.04;92.89;98404.13;4953234;28;19934;-85
2024/01/18 10:17:29;;;;;;;;;;;;;;;-1.96;92.89;98402.44;4948603;29;20025;-85
2024/01/18 10:19:56;;;;;;;;;;;;;;;-2.02;92.64;98407.56;4936209;29;19942;-84
2024/01/18 10:22:24;;;;;;;;;;;;;;;-2.03;92.53;98411.84;4949944;29;19927;-84
2024/01/18 10:24:51;;;;;;;;;;;;;;;-1.98;92.42;98419.59;4947746;28;19927;-84
2024/01/18 10:27:18;;;;;;;;;;;;;;;-1.99;92.17;98417.84;4911344;29;20014;-85
2024/01/18 10:29:45;;;;;;;;;;;;;;;-1.93;92.04;98433.28;4944850;28;19926;-84
2024/01/18 10:32:11;;;;;;;;;;;;;;;-1.94;91.88;98441.84;4926859;29;19927;-83
2024/01/18 10:34:38;;;;;;;;;;;;;;;-1.96;91.75;98441.84;4949272;28;19969;-85
2024/01/18 10:37:05;;;;;;;;;;;;;;;-1.95;91.67;98433.28;4914002;29;19962;-84
2024/01/18 10:39:39;;;;;;;;;;;;;;;-1.88;91.58;98446.16;4951680;28;20054;-84
2024/01/18 10:42:09;;;;;;;;;;;;;;;-1.90;91.49;98453.03;4951088;28;19926;-85
2024/01/18 10:44:39;;;;;;;;;;;;;;;-1.86;91.21;98447.88;4933444;29;19933;-86
2024/01/18 10:47:10;;;;;;;;;;;;;;;-1.77;91.11;98454.78;4940594;28;20013;-84
2024/01/18 10:49:37;;;;;;;;;;;;;;;-1.66;90.94;98453.09;4944926;28;19974;-85
2024/01/18 10:52:04;;;;;;;;;;;;;;;-1.68;90.69;98464.22;4945020;28;19926;-83
2024/01/18 10:54:31;;;;;;;;;;;;;;;-1.76;90.60;98465.06;4947755;28;19982;-84
2024/01/18 10:57:00;;;;;;;;;;;;;;;-1.66;90.56;98462.53;4948397;29;19970;-83
2024/01/18 10:59:29;;;;;;;;;;;;;;;-1.46;90.37;98460.84;4944937;29;19978;-84
2024/01/18 11:01:58;;;;;;;;;;;;;;;-1.47;89.97;98472.00;4909023;29;19927;-84
2024/01/18 11:04:29;;;;;;;;;;;;;;;-1.46;89.78;98473.72;4949200;29;19927;-86
2024/01/18 11:06:57;;;;;;;;;;;;;;;-1.54;89.56;98471.97;4947602;28;19927;-84
2024/01/18 11:09:27;;;;;;;;;;;;;;;-1.53;89.34;98482.28;4935652;28;19934;-83
2024/01/18 11:11:54;;;;;;;;;;;;;;;-1.49;89.17;98484.00;4950977;28;19927;-84
2024/01/18 11:14:21;;;;;;;;;;;;;;;-1.50;89.19;98492.56;4927486;29;19930;-84
2024/01/18 11:16:47;;;;;;;;;;;;;;;-1.46;89.22;98507.16;4939243;28;20041;-83
2024/01/18 11:19:33;;;;;;;;;;;;;;;-1.40;89.21;98507.16;4943490;28;19927;-82
2024/01/18 11:22:00;;;;;;;;;;;;;;;-1.31;89.04;98514.06;4932515;29;20005;-83
2024/01/18 11:24:27;;;;;;;;;;;;;;;-1.28;88.77;98510.63;4931505;29;19933;-82
2024/01/18 11:26:56;;;;;;;;;;;;;;;-1.30;88.91;98527.78;4928981;29;20009;-82
2024/01/18 11:29:26;;;;;;;;;;;;;;;-1.19;88.96;98538.09;4948951;28;19926;-83
2024/01/18 11:31:53;;;;;;;;;;;;;;;-1.26;88.95;98544.94;4928806;29;19932;-82
2024/01/18 11:34:24;;;;;;;;;;;;;;;-1.34;89.37;98546.66;4928663;28;20025;-82
2024/01/18 11:36:51;;;;;;;;;;;;;;;-1.26;89.68;98542.38;4929346;28;19933;-83
2024/01/18 11:39:37;;;;;;;;;;;;;;;-1.32;89.41;98550.97;4928929;28;19926;-82
2024/01/18 11:42:04;;;;;;;;;;;;;;;-1.38;89.22;98557.78;4946120;28;19939;-82
2024/01/18 11:44:30;;;;;;;;;;;;;;;-1.30;89.09;98558.69;4929677;29;19934;-82
2024/01/18 11:46:59;;;;;;;;;;;;;;;-1.27;88.95;98551.81;4928269;28;19933;-82
2024/01/18 11:49:25;;;;;;;;;;;;;;;-1.20;88.61;98559.53;4946312;28;19926;-82
2024/01/18 11:51:58;;;;;;;;;;;;;;;-1.18;88.53;98581.84;4948300;28;19954;-82
2024/01/18 11:54:25;;;;;;;;;;;;;;;-1.17;88.36;98583.59;4913901;29;19926;-84
2024/01/18 11:56:51;;;;;;;;;;;;;;;-1.17;88.25;98600.72;4930836;28;19953;-83
2024/01/18 11:59:19;;;;;;;;;;;;;;;-1.15;88.29;98607.59;4929551;28;19974;-84
2024/01/18 12:01:46;;;;;;;;;;;;;;;-1.13;88.24;98598.19;4913238;28;19934;-83
2024/01/18 12:04:12;;;;;;;;;;;;;;;-1.16;88.25;98593.03;4948464;28;20334;-84
2024/01/18 12:06:39;;;;;;;;;;;;;;;-1.16;88.11;98613.63;4951257;28;19926;-83
2024/01/18 12:09:06;;;;;;;;;;;;;;;-1.06;87.78;98623.09;4929259;28;19966;-83
2024/01/18 12:11:33;;;;;;;;;;;;;;;-1.01;87.61;98630.81;4913709;29;19930;-84
2024/01/18 12:14:00;;;;;;;;;;;;;;;-0.98;87.18;98637.72;4926311;29;19934;-85
2024/01/18 12:16:28;;;;;;;;;;;;;;;-0.90;86.71;98641.13;4930764;29;19926;-83
2024/01/18 12:18:54;;;;;;;;;;;;;;;-0.90;86.69;98647.16;4930853;28;19926;-84
2024/01/18 12:21:22;;;;;;;;;;;;;;;-0.73;86.47;98665.22;4932232;28;19926;-83
2024/01/18 12:23:50;;;;;;;;;;;;;;;-0.77;86.40;98662.63;4945148;28;19927;-83
2024/01/18 12:26:17;;;;;;;;;;;;;;;-0.85;85.90;98660.06;4943662;28;20016;-84
2024/01/18 12:28:44;;;;;;;;;;;;;;;-0.89;86.33;98669.47;4943661;28;19930;-82
2024/01/18 12:31:10;;;;;;;;;;;;;;;-0.92;86.75;98671.19;4929135;28;19936;-84
2024/01/18 12:33:37;;;;;;;;;;;;;;;-0.72;86.98;98687.56;4930063;28;19936;-84
2024/01/18 12:36:04;;;;;;;;;;;;;;;-0.59;86.53;98692.75;4931780;28;19930;-84
2024/01/18 12:38:35;;;;;;;;;;;;;;;-0.68;86.04;98697.88;4933183;28;19931;-84
2024/01/18 12:41:02;;;;;;;;;;;;;;;-0.80;86.37;98704.69;4949607;28;19949;-84
2024/01/18 12:43:29;;;;;;;;;;;;;;;-0.82;86.26;98714.16;4952000;28;20033;-83
2024/01/18 12:45:55;;;;;;;;;;;;;;;-0.79;86.20;98711.59;4933620;29;19926;-82
2024/01/18 12:48:22;;;;;;;;;;;;;;;-0.79;86.44;98721.03;4929649;29;19941;-83